Time;durP1;ratioP1;P1;durP2;ratioP2;P2;SDS_P1;SDS_P2;PMS_P1;PMS_P2;Temp;Humidity;BMP_temperature;BMP_pressure;BME280_temperature;BME280_humidity;BME280_pressure;Samples;Min_cycle;Max_cycle;Signal;HPM_P1;HPM_P2
2023/05/30 00:01:52;;;;;;;9.13;3.57;;;;;;;;;;5074611;28;20230;-53
2023/05/30 00:04:20;;;;;;;12.87;3.70;;;;;;;;;;5074267;28;20219;-53
2023/05/30 00:06:47;;;;;;;12.87;3.70;;;;;;;;;;5074327;28;20207;-53
2023/05/30 00:09:13;;;;;;;12.80;3.97;;;;;;;;;;5074029;28;20222;-53
2023/05/30 00:11:39;;;;;;;13.43;3.80;;;;;;;;;;5074172;28;20646;-53
2023/05/30 00:14:08;;;;;;;12.27;4.10;;;;;;;;;;5074399;28;20211;-53
2023/05/30 00:16:34;;;;;;;12.43;3.87;;;;;;;;;;5074102;28;20198;-53
2023/05/30 00:19:01;;;;;;;9.63;3.33;;;;;;;;;;5074252;28;20219;-53
2023/05/30 00:21:28;;;;;;;8.07;3.57;;;;;;;;;;5073620;28;20223;-53
2023/05/30 00:23:54;;;;;;;17.30;4.87;;;;;;;;;;5073923;28;20310;-53
2023/05/30 00:26:20;;;;;;;12.00;3.40;;;;;;;;;;5074128;28;20662;-53
2023/05/30 00:28:46;;;;;;;12.67;4.07;;;;;;;;;;5073940;28;20660;-52
2023/05/30 00:31:14;;;;;;;10.17;3.33;;;;;;;;;;5073892;28;20194;-53
2023/05/30 00:33:40;;;;;;;7.70;3.53;;;;;;;;;;5073562;28;20282;-54
2023/05/30 00:36:06;;;;;;;11.80;3.70;;;;;;;;;;5073835;28;20750;-54
2023/05/30 00:38:32;;;;;;;11.43;4.27;;;;;;;;;;5073680;28;20195;-53
2023/05/30 00:40:58;;;;;;;11.63;3.73;;;;;;;;;;5073629;28;20775;-54
2023/05/30 00:43:24;;;;;;;11.30;3.80;;;;;;;;;;5071721;28;20203;-52
2023/05/30 00:45:52;;;;;;;8.40;3.50;;;;;;;;;;5072279;28;20649;-54
2023/05/30 00:48:19;;;;;;;11.70;3.47;;;;;;;;;;5073627;28;20199;-54
2023/05/30 00:50:46;;;;;;;5.77;3.30;;;;;;;;;;5073574;28;20207;-54
2023/05/30 00:53:13;;;;;;;11.07;3.80;;;;;;;;;;5073671;28;20208;-54
2023/05/30 00:55:39;;;;;;;12.70;3.60;;;;;;;;;;5073550;28;20272;-54
2023/05/30 00:58:06;;;;;;;11.37;3.90;;;;;;;;;;5072923;28;20199;-54
2023/05/30 01:00:32;;;;;;;10.20;3.30;;;;;;;;;;5073395;28;20220;-54
2023/05/30 01:03:00;;;;;;;12.40;3.50;;;;;;;;;;5073390;28;20228;-54
2023/05/30 01:05:28;;;;;;;9.67;3.70;;;;;;;;;;5073191;28;20223;-54
2023/05/30 01:07:54;;;;;;;10.63;3.53;;;;;;;;;;5073381;28;20232;-54
2023/05/30 01:10:21;;;;;;;11.13;4.30;;;;;;;;;;5073332;28;20195;-54
2023/05/30 01:12:52;;;;;;;12.40;3.63;;;;;;;;;;5073392;28;20725;-54
2023/05/30 01:15:20;;;;;;;9.67;3.70;;;;;;;;;;5073208;28;20901;-54
2023/05/30 01:17:52;;;;;;;10.20;3.60;;;;;;;;;;5073092;28;20603;-54
2023/05/30 01:20:24;;;;;;;9.97;3.30;;;;;;;;;;5073094;28;20207;-54
2023/05/30 01:22:54;;;;;;;12.93;3.40;;;;;;;;;;5073314;28;20287;-53
2023/05/30 01:25:27;;;;;;;8.87;3.47;;;;;;;;;;5073094;28;20227;-54
2023/05/30 01:28:08;;;;;;;12.30;3.50;;;;;;;;;;5073015;28;20199;-54
2023/05/30 01:30:37;;;;;;;10.40;3.67;;;;;;;;;;5072850;28;20271;-54
2023/05/30 01:33:03;;;;;;;8.20;3.20;;;;;;;;;;5072769;28;20199;-54
2023/05/30 01:35:29;;;;;;;10.43;3.27;;;;;;;;;;5072772;28;20249;-54
2023/05/30 01:37:55;;;;;;;8.17;3.20;;;;;;;;;;5072762;28;20702;-54
2023/05/30 01:40:23;;;;;;;8.00;3.27;;;;;;;;;;5072673;28;20207;-55
2023/05/30 01:42:50;;;;;;;9.87;3.47;;;;;;;;;;5073146;28;20250;-56
2023/05/30 01:45:20;;;;;;;10.53;3.50;;;;;;;;;;5072749;28;20739;-55
2023/05/30 01:47:50;;;;;;;9.70;3.53;;;;;;;;;;5072457;28;20662;-55
2023/05/30 01:50:17;;;;;;;8.50;3.90;;;;;;;;;;5072617;28;20208;-54
2023/05/30 01:52:47;;;;;;;6.10;2.80;;;;;;;;;;5072395;28;20564;-55
2023/05/30 01:55:14;;;;;;;12.20;3.40;;;;;;;;;;5072419;28;20192;-54
2023/05/30 01:57:44;;;;;;;10.43;3.67;;;;;;;;;;5072228;28;20560;-54
2023/05/30 02:00:12;;;;;;;9.47;3.67;;;;;;;;;;5072219;28;20291;-55
2023/05/30 02:02:40;;;;;;;7.90;2.80;;;;;;;;;;5072151;28;20208;-54
2023/05/30 02:05:06;;;;;;;10.13;3.53;;;;;;;;;;5072370;28;20215;-54
2023/05/30 02:07:32;;;;;;;8.37;3.47;;;;;;;;;;5072225;28;20282;-55
2023/05/30 02:09:58;;;;;;;10.27;3.57;;;;;;;;;;5072147;28;20737;-54
2023/05/30 02:12:24;;;;;;;14.40;3.60;;;;;;;;;;5072315;28;20192;-55
2023/05/30 02:14:52;;;;;;;9.97;3.23;;;;;;;;;;5072578;28;20531;-54
2023/05/30 02:17:20;;;;;;;8.43;3.20;;;;;;;;;;5072430;28;20199;-54
2023/05/30 02:19:48;;;;;;;11.97;4.17;;;;;;;;;;5072057;28;20210;-54
2023/05/30 02:22:14;;;;;;;9.07;3.40;;;;;;;;;;5071846;28;20229;-54
2023/05/30 02:24:40;;;;;;;11.43;3.60;;;;;;;;;;5071679;28;20231;-55
2023/05/30 02:27:06;;;;;;;10.03;3.60;;;;;;;;;;5072125;28;20248;-55
2023/05/30 02:29:32;;;;;;;8.53;3.20;;;;;;;;;;5071766;28;20606;-55
2023/05/30 02:31:58;;;;;;;12.97;4.43;;;;;;;;;;5071886;28;20196;-54
2023/05/30 02:34:24;;;;;;;9.13;3.03;;;;;;;;;;5071742;28;20195;-54
2023/05/30 02:36:52;;;;;;;9.43;3.30;;;;;;;;;;5071928;28;20561;-54
2023/05/30 02:39:18;;;;;;;9.90;3.30;;;;;;;;;;5071921;28;20214;-54
2023/05/30 02:41:44;;;;;;;11.83;3.30;;;;;;;;;;5071707;28;20231;-55
2023/05/30 02:44:10;;;;;;;8.60;3.33;;;;;;;;;;5071853;28;20291;-55
2023/05/30 02:46:36;;;;;;;10.47;3.43;;;;;;;;;;5071705;28;20389;-55
2023/05/30 02:49:02;;;;;;;9.63;3.53;;;;;;;;;;5071728;28;20254;-56
2023/05/30 02:51:28;;;;;;;9.87;3.87;;;;;;;;;;5071747;28;20196;-56
2023/05/30 02:53:55;;;;;;;9.87;2.93;;;;;;;;;;5071570;28;20595;-55
2023/05/30 02:56:22;;;;;;;6.43;3.00;;;;;;;;;;5071664;28;20203;-55
2023/05/30 02:58:49;;;;;;;12.27;3.60;;;;;;;;;;5071517;28;20218;-55
2023/05/30 03:01:15;;;;;;;8.47;3.40;;;;;;;;;;5071067;28;20255;-55
2023/05/30 03:03:41;;;;;;;8.47;3.53;;;;;;;;;;5070908;28;20246;-56
2023/05/30 03:06:08;;;;;;;10.93;3.50;;;;;;;;;;5070985;28;20257;-55
2023/05/30 03:08:36;;;;;;;10.10;3.80;;;;;;;;;;5070854;28;20198;-56
2023/05/30 03:11:03;;;;;;;10.20;3.60;;;;;;;;;;5071552;28;20211;-56
2023/05/30 03:13:29;;;;;;;8.60;3.77;;;;;;;;;;5071412;28;20689;-55
2023/05/30 03:15:55;;;;;;;11.13;3.60;;;;;;;;;;5071410;28;20199;-56
2023/05/30 03:18:21;;;;;;;5.97;3.00;;;;;;;;;;5071497;28;20203;-55
2023/05/30 03:20:47;;;;;;;6.90;3.20;;;;;;;;;;5071148;28;20211;-56
2023/05/30 03:23:13;;;;;;;6.43;2.90;;;;;;;;;;5075131;28;20788;-56
2023/05/30 03:25:39;;;;;;;7.97;2.83;;;;;;;;;;5075267;28;20291;-55
2023/05/30 03:28:07;;;;;;;8.17;3.30;;;;;;;;;;5075410;28;20200;-56
2023/05/30 03:30:33;;;;;;;8.63;3.30;;;;;;;;;;5075233;28;20200;-55
2023/05/30 03:32:59;;;;;;;8.53;3.33;;;;;;;;;;5075106;28;20195;-56
2023/05/30 03:35:25;;;;;;;10.20;3.37;;;;;;;;;;5075023;28;20199;-55
2023/05/30 03:37:51;;;;;;;7.33;3.07;;;;;;;;;;5074862;28;20245;-55
2023/05/30 03:40:17;;;;;;;9.73;3.63;;;;;;;;;;5074871;28;20199;-56
2023/05/30 03:42:44;;;;;;;6.67;3.10;;;;;;;;;;5074762;28;20207;-55
2023/05/30 03:45:11;;;;;;;7.80;3.57;;;;;;;;;;5074875;28;20200;-55
2023/05/30 03:47:37;;;;;;;8.80;3.77;;;;;;;;;;5074702;28;20298;-55
2023/05/30 03:50:04;;;;;;;10.13;3.73;;;;;;;;;;5074915;28;20199;-55
2023/05/30 03:52:30;;;;;;;7.53;3.60;;;;;;;;;;5074654;28;20278;-55
2023/05/30 03:54:56;;;;;;;8.33;3.80;;;;;;;;;;5074736;28;20234;-55
2023/05/30 03:57:22;;;;;;;9.43;3.57;;;;;;;;;;5074796;28;20199;-56
2023/05/30 03:59:48;;;;;;;6.40;3.13;;;;;;;;;;5074643;28;20199;-56
2023/05/30 04:02:15;;;;;;;8.93;3.40;;;;;;;;;;5074489;28;20694;-55
2023/05/30 04:04:41;;;;;;;9.23;3.23;;;;;;;;;;5074313;28;20634;-55
2023/05/30 04:07:08;;;;;;;8.03;3.67;;;;;;;;;;5074621;28;20191;-54
2023/05/30 04:09:34;;;;;;;9.87;3.63;;;;;;;;;;5074209;28;20261;-55
2023/05/30 04:12:01;;;;;;;9.53;3.80;;;;;;;;;;5074300;28;20199;-56
2023/05/30 04:14:27;;;;;;;9.53;3.63;;;;;;;;;;5074345;28;20230;-55
2023/05/30 04:16:53;;;;;;;9.50;3.90;;;;;;;;;;5074226;28;20208;-57
2023/05/30 04:19:20;;;;;;;11.10;4.20;;;;;;;;;;5074371;28;20286;-55
2023/05/30 04:21:46;;;;;;;11.47;4.00;;;;;;;;;;5074076;28;20231;-55
2023/05/30 04:24:14;;;;;;;9.00;4.17;;;;;;;;;;5073910;28;20751;-56
2023/05/30 04:26:40;;;;;;;10.83;3.77;;;;;;;;;;5074021;28;20700;-56
2023/05/30 04:29:08;;;;;;;7.20;3.63;;;;;;;;;;5074137;28;20551;-56
2023/05/30 04:31:34;;;;;;;10.10;4.50;;;;;;;;;;5073897;28;20236;-55
2023/05/30 04:34:00;;;;;;;8.73;3.90;;;;;;;;;;5072947;28;20206;-55
2023/05/30 04:36:27;;;;;;;8.00;4.30;;;;;;;;;;5073861;28;20206;-56
2023/05/30 04:38:53;;;;;;;9.33;4.03;;;;;;;;;;5074011;28;20242;-56
2023/05/30 04:41:24;;;;;;;11.60;4.50;;;;;;;;;;5073950;28;20247;-55
2023/05/30 04:44:00;;;;;;;10.67;4.23;;;;;;;;;;5073896;28;20622;-56
2023/05/30 04:46:27;;;;;;;10.60;4.33;;;;;;;;;;5073739;28;20195;-55
2023/05/30 04:48:55;;;;;;;12.10;4.07;;;;;;;;;;5073747;28;20211;-56
2023/05/30 04:51:21;;;;;;;9.97;3.97;;;;;;;;;;5073864;28;20218;-55
2023/05/30 04:53:49;;;;;;;11.97;4.20;;;;;;;;;;5073643;28;20612;-55
2023/05/30 04:56:15;;;;;;;11.17;3.80;;;;;;;;;;5073590;28;20203;-55
2023/05/30 04:58:41;;;;;;;7.47;3.33;;;;;;;;;;5073393;28;20223;-55
2023/05/30 05:01:09;;;;;;;10.23;3.93;;;;;;;;;;5073556;28;20265;-55
2023/05/30 05:03:36;;;;;;;9.97;3.90;;;;;;;;;;5073413;28;20203;-54
2023/05/30 05:06:02;;;;;;;7.83;3.70;;;;;;;;;;5073412;28;20627;-55
2023/05/30 05:08:29;;;;;;;10.93;4.70;;;;;;;;;;5073329;28;20239;-55
2023/05/30 05:10:56;;;;;;;8.73;3.70;;;;;;;;;;5073338;28;20196;-55
2023/05/30 05:13:22;;;;;;;10.13;3.83;;;;;;;;;;5073292;28;20678;-55
2023/05/30 05:15:48;;;;;;;7.70;3.63;;;;;;;;;;5073123;28;20203;-55
2023/05/30 05:18:14;;;;;;;10.60;4.33;;;;;;;;;;5073163;28;20566;-55
2023/05/30 05:20:40;;;;;;;10.90;4.53;;;;;;;;;;5072879;28;20227;-55
2023/05/30 05:23:07;;;;;;;8.63;3.67;;;;;;;;;;5073100;28;20235;-55
2023/05/30 05:25:33;;;;;;;12.17;4.70;;;;;;;;;;5072973;28;20195;-55
2023/05/30 05:28:00;;;;;;;5.87;3.17;;;;;;;;;;5072993;28;20256;-55
2023/05/30 05:30:26;;;;;;;9.17;3.90;;;;;;;;;;5072716;28;20242;-55
2023/05/30 05:32:52;;;;;;;8.00;3.87;;;;;;;;;;5072928;28;20231;-55
2023/05/30 05:35:18;;;;;;;10.30;4.20;;;;;;;;;;5072974;28;20569;-55
2023/05/30 05:37:44;;;;;;;10.13;4.40;;;;;;;;;;5072614;28;20207;-55
2023/05/30 05:40:11;;;;;;;8.30;3.77;;;;;;;;;;5072659;28;20278;-55
2023/05/30 05:42:37;;;;;;;11.30;3.90;;;;;;;;;;5072535;28;20231;-55
2023/05/30 05:45:05;;;;;;;13.10;4.10;;;;;;;;;;5072525;28;20620;-54
2023/05/30 05:47:31;;;;;;;8.70;3.80;;;;;;;;;;5072403;28;20207;-56
2023/05/30 05:49:57;;;;;;;6.67;3.30;;;;;;;;;;5072421;28;20206;-55
2023/05/30 05:52:24;;;;;;;8.37;3.57;;;;;;;;;;5072443;28;20227;-55
2023/05/30 05:54:50;;;;;;;8.57;3.57;;;;;;;;;;5072489;28;20184;-54
2023/05/30 05:57:16;;;;;;;9.13;3.90;;;;;;;;;;5072458;28;20241;-55
2023/05/30 05:59:42;;;;;;;10.10;3.83;;;;;;;;;;5072229;28;20658;-54
2023/05/30 06:02:10;;;;;;;12.60;3.93;;;;;;;;;;5072217;28;20223;-54
2023/05/30 06:04:36;;;;;;;11.33;3.67;;;;;;;;;;5072216;28;20223;-56
2023/05/30 06:07:02;;;;;;;9.83;3.80;;;;;;;;;;5072275;28;20209;-55
2023/05/30 06:09:30;;;;;;;8.90;3.40;;;;;;;;;;5071938;28;20249;-55
2023/05/30 06:11:56;;;;;;;9.13;3.67;;;;;;;;;;5071952;28;20650;-56
2023/05/30 06:14:22;;;;;;;11.00;3.70;;;;;;;;;;5072177;28;20195;-55
2023/05/30 06:16:48;;;;;;;11.43;3.80;;;;;;;;;;5071838;28;20196;-56
2023/05/30 06:19:16;;;;;;;8.60;3.40;;;;;;;;;;5071676;28;20207;-55
2023/05/30 06:21:42;;;;;;;6.20;3.27;;;;;;;;;;5071414;28;20216;-55
2023/05/30 06:24:08;;;;;;;7.97;3.60;;;;;;;;;;5071572;28;20249;-56
2023/05/30 06:26:34;;;;;;;6.87;3.53;;;;;;;;;;5071635;28;20561;-56
2023/05/30 06:29:00;;;;;;;11.03;3.67;;;;;;;;;;5071605;28;20642;-56
2023/05/30 06:31:26;;;;;;;7.43;3.13;;;;;;;;;;5071507;28;20294;-55
2023/05/30 06:33:52;;;;;;;9.83;3.30;;;;;;;;;;5071822;28;20199;-55
2023/05/30 06:36:19;;;;;;;6.87;3.07;;;;;;;;;;5071626;28;20214;-56
2023/05/30 06:38:45;;;;;;;9.50;3.43;;;;;;;;;;5071551;28;20247;-56
2023/05/30 06:41:12;;;;;;;6.83;3.23;;;;;;;;;;5071513;28;20280;-56
2023/05/30 06:43:38;;;;;;;6.80;3.40;;;;;;;;;;5071578;28;20298;-56
2023/05/30 06:46:05;;;;;;;7.53;2.93;;;;;;;;;;5071562;28;20269;-55
2023/05/30 06:48:31;;;;;;;5.17;2.70;;;;;;;;;;5071471;28;20297;-55
2023/05/30 06:50:57;;;;;;;8.10;3.17;;;;;;;;;;5071602;28;20228;-55
2023/05/30 06:53:24;;;;;;;5.90;2.80;;;;;;;;;;5071584;28;20209;-56
2023/05/30 06:55:50;;;;;;;9.37;3.17;;;;;;;;;;5070762;28;20207;-56
2023/05/30 06:58:17;;;;;;;6.60;2.87;;;;;;;;;;5071270;28;20202;-55
2023/05/30 07:00:44;;;;;;;6.67;2.60;;;;;;;;;;5071092;28;20537;-55
2023/05/30 07:03:10;;;;;;;6.43;2.70;;;;;;;;;;5071345;28;20324;-54
2023/05/30 07:05:36;;;;;;;7.30;3.07;;;;;;;;;;5071208;28;20216;-55
2023/05/30 07:08:02;;;;;;;8.63;3.37;;;;;;;;;;5071658;28;20206;-55
2023/05/30 07:10:30;;;;;;;5.33;2.47;;;;;;;;;;5071266;28;20244;-55
2023/05/30 07:12:56;;;;;;;6.30;2.87;;;;;;;;;;5071433;28;20279;-54
2023/05/30 07:15:22;;;;;;;5.13;2.70;;;;;;;;;;5071372;28;20227;-55
2023/05/30 07:17:48;;;;;;;6.73;2.70;;;;;;;;;;5071209;28;20199;-56
2023/05/30 07:20:20;;;;;;;7.87;2.80;;;;;;;;;;5071273;28;20261;-56
2023/05/30 07:22:46;;;;;;;4.87;2.40;;;;;;;;;;5070891;28;20646;-55
2023/05/30 07:25:12;;;;;;;6.17;2.80;;;;;;;;;;5071225;28;20298;-54
2023/05/30 07:27:39;;;;;;;9.47;3.40;;;;;;;;;;5071268;28;20204;-55
2023/05/30 07:30:06;;;;;;;6.87;3.00;;;;;;;;;;5071491;28;20210;-55
2023/05/30 07:32:32;;;;;;;8.17;3.23;;;;;;;;;;5071254;28;20275;-55
2023/05/30 07:34:58;;;;;;;5.40;2.57;;;;;;;;;;5071308;28;20353;-56
2023/05/30 07:37:24;;;;;;;7.50;3.03;;;;;;;;;;5071166;28;20633;-55
2023/05/30 07:39:50;;;;;;;5.00;2.63;;;;;;;;;;5071188;28;20618;-55
2023/05/30 07:42:16;;;;;;;6.40;2.97;;;;;;;;;;5071153;28;20706;-55
2023/05/30 07:44:43;;;;;;;5.83;2.97;;;;;;;;;;5070954;28;20207;-53
2023/05/30 07:47:09;;;;;;;7.33;3.17;;;;;;;;;;5071061;28;20210;-54
2023/05/30 07:49:35;;;;;;;10.17;3.90;;;;;;;;;;5071024;28;20195;-54
2023/05/30 07:52:01;;;;;;;8.63;3.37;;;;;;;;;;5070819;28;20188;-55
2023/05/30 07:54:27;;;;;;;6.70;3.30;;;;;;;;;;5071002;28;20212;-55
2023/05/30 07:56:54;;;;;;;8.17;3.60;;;;;;;;;;5070992;28;20723;-55
2023/05/30 07:59:20;;;;;;;6.90;3.90;;;;;;;;;;5071175;28;20298;-56
2023/05/30 08:01:47;;;;;;;9.93;4.17;;;;;;;;;;5070754;28;20219;-55
2023/05/30 08:04:13;;;;;;;6.47;3.20;;;;;;;;;;5070927;28;20226;-55
2023/05/30 08:06:39;;;;;;;6.93;3.20;;;;;;;;;;5070844;28;20199;-55
2023/05/30 08:09:06;;;;;;;8.20;3.20;;;;;;;;;;5074592;28;20192;-54
2023/05/30 08:11:32;;;;;;;6.20;2.80;;;;;;;;;;5074377;28;20202;-53
2023/05/30 08:13:58;;;;;;;6.23;2.60;;;;;;;;;;5074570;28;20290;-55
2023/05/30 08:16:24;;;;;;;7.37;3.43;;;;;;;;;;5074206;28;20283;-55
2023/05/30 08:18:52;;;;;;;7.07;3.20;;;;;;;;;;5074367;28;20206;-55
2023/05/30 08:21:18;;;;;;;6.83;3.07;;;;;;;;;;5074541;28;20226;-55
2023/05/30 08:23:45;;;;;;;7.87;2.73;;;;;;;;;;5073965;28;20235;-55
2023/05/30 08:26:11;;;;;;;5.30;2.67;;;;;;;;;;5074201;28;20658;-55
2023/05/30 08:28:37;;;;;;;5.17;2.80;;;;;;;;;;5074138;28;20204;-55
2023/05/30 08:31:05;;;;;;;5.30;3.00;;;;;;;;;;5074258;28;20210;-55
2023/05/30 08:33:34;;;;;;;7.27;2.77;;;;;;;;;;5074131;28;20203;-55
2023/05/30 08:36:01;;;;;;;5.93;2.53;;;;;;;;;;5073855;28;20206;-57
2023/05/30 08:38:27;;;;;;;6.07;2.63;;;;;;;;;;5073956;28;20212;-57
2023/05/30 08:40:54;;;;;;;7.13;3.13;;;;;;;;;;5073781;28;20226;-56
2023/05/30 08:43:20;;;;;;;6.60;3.10;;;;;;;;;;5074031;28;20245;-57
2023/05/30 08:45:47;;;;;;;6.27;2.90;;;;;;;;;;5073695;28;20199;-57
2023/05/30 08:48:14;;;;;;;3.80;2.43;;;;;;;;;;5073783;28;20196;-55
2023/05/30 08:50:42;;;;;;;6.07;2.97;;;;;;;;;;5073629;28;20551;-54
2023/05/30 08:53:10;;;;;;;5.70;3.17;;;;;;;;;;5073760;28;20235;-54
2023/05/30 08:55:38;;;;;;;6.63;3.17;;;;;;;;;;5073718;28;20196;-54
2023/05/30 08:58:08;;;;;;;6.10;3.17;;;;;;;;;;5073740;28;20196;-54
2023/05/30 09:00:35;;;;;;;7.10;3.60;;;;;;;;;;5073500;28;20199;-56
2023/05/30 09:03:05;;;;;;;8.37;3.03;;;;;;;;;;5073403;28;20219;-55
2023/05/30 09:05:33;;;;;;;5.67;3.50;;;;;;;;;;5073119;28;20224;-55
2023/05/30 09:07:59;;;;;;;5.57;3.03;;;;;;;;;;5073404;28;20390;-55
2023/05/30 09:10:28;;;;;;;5.93;2.80;;;;;;;;;;5072958;28;20253;-55
2023/05/30 09:12:54;;;;;;;6.40;3.40;;;;;;;;;;5073180;28;20200;-55
2023/05/30 09:15:20;;;;;;;6.37;3.23;;;;;;;;;;5073234;28;20561;-55
2023/05/30 09:17:46;;;;;;;8.67;3.03;;;;;;;;;;5073019;28;20205;-55
2023/05/30 09:20:16;;;;;;;4.57;2.97;;;;;;;;;;5072453;28;20238;-55
2023/05/30 09:22:43;;;;;;;6.03;3.03;;;;;;;;;;5072715;28;20230;-55
2023/05/30 09:25:09;;;;;;;5.80;2.63;;;;;;;;;;5072739;28;20771;-55
2023/05/30 09:27:38;;;;;;;8.10;3.63;;;;;;;;;;5072994;28;20192;-55
2023/05/30 09:30:07;;;;;;;5.27;2.87;;;;;;;;;;5073055;28;20206;-55
2023/05/30 09:32:38;;;;;;;8.87;3.30;;;;;;;;;;5072867;28;20219;-54
2023/05/30 09:35:07;;;;;;;5.67;3.33;;;;;;;;;;5072888;28;20673;-54
2023/05/30 09:37:35;;;;;;;9.83;3.83;;;;;;;;;;5072721;28;20200;-55
2023/05/30 09:40:09;;;;;;;5.90;3.13;;;;;;;;;;5072803;28;20234;-54
2023/05/30 09:42:40;;;;;;;5.83;3.13;;;;;;;;;;5072705;28;20222;-54
2023/05/30 09:45:08;;;;;;;7.37;3.97;;;;;;;;;;5072583;28;20666;-54
2023/05/30 09:47:37;;;;;;;9.00;3.30;;;;;;;;;;5073146;28;20261;-52
2023/05/30 09:50:05;;;;;;;4.70;3.20;;;;;;;;;;5072622;28;20200;-54
2023/05/30 09:52:31;;;;;;;5.07;3.17;;;;;;;;;;5072354;28;20726;-54
2023/05/30 09:54:57;;;;;;;4.90;3.17;;;;;;;;;;5072459;28;20192;-53
2023/05/30 09:57:24;;;;;;;5.57;2.87;;;;;;;;;;5072531;28;20200;-53
2023/05/30 09:59:51;;;;;;;7.23;3.30;;;;;;;;;;5072524;28;20183;-52
2023/05/30 10:02:21;;;;;;;5.67;3.30;;;;;;;;;;5072274;28;20277;-53
2023/05/30 10:04:47;;;;;;;4.30;3.03;;;;;;;;;;5072101;28;20273;-54
2023/05/30 10:07:14;;;;;;;5.83;3.07;;;;;;;;;;5072218;28;20203;-54
2023/05/30 10:09:40;;;;;;;5.53;2.83;;;;;;;;;;5071980;28;20272;-53
2023/05/30 10:12:07;;;;;;;5.20;2.60;;;;;;;;;;5072492;28;20187;-53
2023/05/30 10:14:34;;;;;;;4.17;2.87;;;;;;;;;;5072198;28;20206;-53
2023/05/30 10:17:04;;;;;;;3.80;2.67;;;;;;;;;;5071941;28;20207;-53
2023/05/30 10:19:32;;;;;;;4.90;3.30;;;;;;;;;;5070347;28;20207;-52
2023/05/30 10:21:58;;;;;;;7.80;3.07;;;;;;;;;;5069856;28;20227;-52
2023/05/30 10:24:25;;;;;;;5.17;3.10;;;;;;;;;;5071499;28;20713;-53
2023/05/30 10:26:54;;;;;;;5.27;3.73;;;;;;;;;;5071704;28;20226;-52
2023/05/30 10:29:23;;;;;;;7.40;3.43;;;;;;;;;;5071810;28;20606;-52
2023/05/30 10:31:51;;;;;;;5.17;2.90;;;;;;;;;;5070852;28;20217;-52
2023/05/30 10:34:21;;;;;;;8.27;4.03;;;;;;;;;;5071686;28;20192;-52
2023/05/30 10:36:47;;;;;;;5.07;3.70;;;;;;;;;;5071571;28;20204;-52
2023/05/30 10:39:17;;;;;;;5.37;3.40;;;;;;;;;;5071631;28;20196;-52
2023/05/30 10:41:48;;;;;;;5.27;3.10;;;;;;;;;;5071435;28;20216;-52
2023/05/30 10:44:17;;;;;;;4.37;3.17;;;;;;;;;;5071345;28;20215;-53
2023/05/30 10:46:46;;;;;;;8.27;3.00;;;;;;;;;;5069440;28;20294;-53
2023/05/30 10:49:15;;;;;;;6.13;3.23;;;;;;;;;;5071707;28;20196;-54
2023/05/30 10:51:59;;;;;;;6.37;2.93;;;;;;;;;;5071717;28;20191;-53
2023/05/30 10:54:28;;;;;;;5.60;3.07;;;;;;;;;;5071912;28;20274;-52
2023/05/30 10:56:54;;;;;;;7.03;2.90;;;;;;;;;;5071666;28;20295;-52
2023/05/30 10:59:21;;;;;;;6.47;3.10;;;;;;;;;;5071915;28;20203;-53
2023/05/30 11:01:59;;;;;;;6.43;3.10;;;;;;;;;;5071749;28;20227;-52
2023/05/30 11:04:29;;;;;;;4.63;2.70;;;;;;;;;;5071759;28;20226;-51
2023/05/30 11:06:56;;;;;;;6.00;3.03;;;;;;;;;;5071594;28;20619;-52
2023/05/30 11:09:22;;;;;;;4.83;3.60;;;;;;;;;;5072001;28;20223;-53
2023/05/30 11:11:56;;;;;;;6.37;3.33;;;;;;;;;;5071681;28;20231;-53
2023/05/30 11:14:24;;;;;;;5.67;3.20;;;;;;;;;;5071886;28;20266;-52
2023/05/30 11:16:56;;;;;;;4.77;3.30;;;;;;;;;;5071722;28;20274;-52
2023/05/30 11:19:25;;;;;;;4.17;3.10;;;;;;;;;;5072119;28;20535;-52
2023/05/30 11:21:55;;;;;;;6.47;3.60;;;;;;;;;;5071961;28;20951;-53
2023/05/30 11:24:22;;;;;;;7.07;4.03;;;;;;;;;;5071810;28;20595;-57
2023/05/30 11:26:59;;;;;;;6.13;3.03;;;;;;;;;;5071621;28;20242;-53
2023/05/30 11:29:29;;;;;;;6.03;3.40;;;;;;;;;;5070314;28;20415;-52
2023/05/30 11:31:56;;;;;;;4.27;2.77;;;;;;;;;;5071382;28;20196;-53
2023/05/30 11:34:22;;;;;;;7.00;3.27;;;;;;;;;;5071656;28;20206;-52
2023/05/30 11:36:48;;;;;;;4.70;3.13;;;;;;;;;;5071443;28;20202;-51
2023/05/30 11:39:15;;;;;;;4.87;3.20;;;;;;;;;;5071404;28;20571;-53
2023/05/30 11:41:41;;;;;;;4.70;2.73;;;;;;;;;;5070975;28;20226;-53
2023/05/30 11:44:09;;;;;;;5.43;3.40;;;;;;;;;;5075179;28;20270;-52
2023/05/30 11:46:35;;;;;;;3.67;2.77;;;;;;;;;;5075165;28;20222;-54
2023/05/30 11:49:04;;;;;;;6.07;2.93;;;;;;;;;;5074653;28;20200;-52
2023/05/30 11:51:31;;;;;;;4.30;2.83;;;;;;;;;;5074999;28;20669;-53
2023/05/30 11:53:57;;;;;;;6.37;3.00;;;;;;;;;;5074934;28;20654;-53
2023/05/30 11:56:30;;;;;;;4.33;2.93;;;;;;;;;;5075245;28;20288;-52
2023/05/30 11:58:56;;;;;;;6.57;3.00;;;;;;;;;;5074748;28;20684;-52
2023/05/30 12:01:23;;;;;;;3.97;3.00;;;;;;;;;;5074883;28;20217;-52
2023/05/30 12:03:49;;;;;;;3.97;3.00;;;;;;;;;;5074803;28;20278;-52
2023/05/30 12:06:15;;;;;;;5.73;3.10;;;;;;;;;;5074769;28;20722;-52
2023/05/30 12:08:41;;;;;;;5.07;2.83;;;;;;;;;;5074629;28;20191;-53
2023/05/30 12:11:09;;;;;;;3.73;2.80;;;;;;;;;;5074697;28;20204;-52
2023/05/30 12:13:35;;;;;;;5.67;3.00;;;;;;;;;;5074719;28;20191;-53
2023/05/30 12:16:01;;;;;;;4.17;3.00;;;;;;;;;;5074470;28;20203;-52
2023/05/30 12:18:29;;;;;;;4.80;2.83;;;;;;;;;;5074614;28;20279;-52
2023/05/30 12:20:55;;;;;;;5.37;3.17;;;;;;;;;;5074366;28;20730;-54
2023/05/30 12:23:23;;;;;;;4.33;2.57;;;;;;;;;;5074288;28;20331;-53
2023/05/30 12:25:50;;;;;;;3.40;2.57;;;;;;;;;;5074421;28;20253;-51
2023/05/30 12:28:16;;;;;;;4.40;3.07;;;;;;;;;;5074470;28;20200;-52
2023/05/30 12:30:43;;;;;;;4.17;3.13;;;;;;;;;;5074176;28;20193;-53
2023/05/30 12:33:15;;;;;;;5.03;2.70;;;;;;;;;;5074376;28;20191;-53
2023/05/30 12:35:42;;;;;;;4.17;2.47;;;;;;;;;;5074135;28;20201;-53
2023/05/30 12:38:08;;;;;;;3.20;2.80;;;;;;;;;;5074271;28;20200;-53
2023/05/30 12:40:34;;;;;;;3.20;2.43;;;;;;;;;;5074189;28;20594;-51
2023/05/30 12:43:00;;;;;;;3.13;2.50;;;;;;;;;;5074257;28;20722;-52
2023/05/30 12:45:26;;;;;;;2.83;2.47;;;;;;;;;;5073803;28;20200;-51
2023/05/30 12:47:53;;;;;;;4.30;2.33;;;;;;;;;;5073750;28;20188;-50
2023/05/30 12:50:19;;;;;;;3.93;2.67;;;;;;;;;;5073717;28;20211;-50
2023/05/30 12:52:47;;;;;;;3.07;2.70;;;;;;;;;;5073556;28;20218;-53
2023/05/30 12:55:13;;;;;;;2.83;2.40;;;;;;;;;;5072823;28;20725;-52
2023/05/30 12:57:39;;;;;;;5.77;2.93;;;;;;;;;;5073458;28;20209;-52
2023/05/30 13:00:07;;;;;;;2.70;2.50;;;;;;;;;;5073555;28;20216;-53
2023/05/30 13:02:35;;;;;;;2.50;2.30;;;;;;;;;;5073462;28;20279;-51
2023/05/30 13:05:01;;;;;;;2.70;2.20;;;;;;;;;;5073390;28;20297;-50
2023/05/30 13:07:27;;;;;;;2.50;2.30;;;;;;;;;;5071673;28;20217;-51
2023/05/30 13:09:54;;;;;;;3.03;2.40;;;;;;;;;;5073558;28;20192;-56
2023/05/30 13:12:20;;;;;;;2.77;2.30;;;;;;;;;;5067584;28;20207;-52
2023/05/30 13:14:47;;;;;;;3.30;2.40;;;;;;;;;;5072689;28;20196;-52
2023/05/30 13:17:13;;;;;;;5.23;2.57;;;;;;;;;;5073355;28;20282;-53
2023/05/30 13:19:39;;;;;;;4.67;2.67;;;;;;;;;;5071385;28;20205;-54
2023/05/30 13:22:06;;;;;;;2.80;2.03;;;;;;;;;;5071617;28;20258;-55
2023/05/30 13:24:32;;;;;;;2.93;2.30;;;;;;;;;;5073105;28;20235;-54
2023/05/30 13:27:00;;;;;;;2.70;2.30;;;;;;;;;;5072984;28;20202;-55
2023/05/30 13:29:26;;;;;;;3.10;2.43;;;;;;;;;;5072857;28;20213;-53
2023/05/30 13:31:52;;;;;;;5.20;2.20;;;;;;;;;;5072899;28;20199;-52
2023/05/30 13:34:18;;;;;;;2.77;2.43;;;;;;;;;;5072849;28;20202;-54
2023/05/30 13:36:44;;;;;;;3.93;2.43;;;;;;;;;;5072508;28;20555;-54
2023/05/30 13:39:10;;;;;;;4.47;2.40;;;;;;;;;;5072758;28;20209;-55
2023/05/30 13:41:36;;;;;;;2.27;2.07;;;;;;;;;;5072469;28;20316;-52
2023/05/30 13:44:04;;;;;;;5.57;2.40;;;;;;;;;;5072429;28;20217;-53
2023/05/30 13:46:30;;;;;;;4.13;2.23;;;;;;;;;;5072471;28;20226;-51
2023/05/30 13:48:57;;;;;;;2.70;2.33;;;;;;;;;;5072468;28;20252;-54
2023/05/30 13:51:23;;;;;;;3.23;2.63;;;;;;;;;;5072420;28;20198;-53
2023/05/30 13:53:49;;;;;;;3.07;2.70;;;;;;;;;;5072412;28;20200;-54
2023/05/30 13:56:15;;;;;;;2.60;2.03;;;;;;;;;;5072476;28;20226;-53
2023/05/30 13:58:41;;;;;;;2.40;2.20;;;;;;;;;;5071952;28;20187;-56
2023/05/30 14:01:09;;;;;;;2.60;2.33;;;;;;;;;;5072232;28;20191;-51
2023/05/30 14:03:36;;;;;;;2.67;2.20;;;;;;;;;;5071892;28;20326;-53
2023/05/30 14:06:02;;;;;;;2.43;2.17;;;;;;;;;;5071780;28;20775;-54
2023/05/30 14:08:28;;;;;;;3.50;2.30;;;;;;;;;;5071991;28;20196;-54
2023/05/30 14:10:55;;;;;;;2.80;2.20;;;;;;;;;;5071655;28;20556;-53
2023/05/30 14:13:22;;;;;;;3.13;2.27;;;;;;;;;;5071955;28;20279;-53
2023/05/30 14:15:48;;;;;;;2.50;2.20;;;;;;;;;;5071542;28;20599;-53
2023/05/30 14:18:15;;;;;;;4.90;2.40;;;;;;;;;;5071829;28;20250;-54
2023/05/30 14:20:41;;;;;;;3.03;2.30;;;;;;;;;;5071586;28;20199;-53
2023/05/30 14:23:08;;;;;;;2.93;1.90;;;;;;;;;;5071622;28;20765;-55
2023/05/30 14:25:34;;;;;;;3.80;2.40;;;;;;;;;;5071737;28;20228;-53
2023/05/30 14:28:00;;;;;;;3.97;2.43;;;;;;;;;;5071767;28;20723;-53
2023/05/30 14:30:26;;;;;;;3.13;2.40;;;;;;;;;;5071906;28;20202;-55
2023/05/30 14:32:53;;;;;;;2.40;2.20;;;;;;;;;;5071452;28;20195;-58
2023/05/30 14:35:20;;;;;;;3.07;2.30;;;;;;;;;;5071695;28;20202;-54
2023/05/30 14:37:46;;;;;;;2.67;2.27;;;;;;;;;;5071184;28;20203;-54
2023/05/30 14:40:12;;;;;;;2.73;2.13;;;;;;;;;;5071564;28;20610;-53